Wednesday, September 20, 2017, 9:34 PM EDT

KOXB, Ocean City Municipal Airport

Location: Berlin, MD, United States Lat: 38.317
Local Time: 9:34 PM EDT ( 1:34 GMT) Lon: -75.117
Time Zone: US/Eastern Elev: 13 ft

Show me the last for .
Show Decoded

2017-09-20 20:53 METAR KOXB 210053Z AUTO 29003KT 10SM CLR 23/21 A2993 RMK AO2 SLP136 T02330206 =
2017-09-20 19:53 METAR KOXB 202353Z AUTO 28004KT 10SM CLR 23/21 A2992 RMK AO2 SLP130 6////
                 T02330211 51011 =
2017-09-20 18:53 METAR KOXB 202253Z AUTO 30003KT 10SM CLR 25/21 A2991 RMK AO2 SLP126 T02500211 =
2017-09-20 17:53 METAR KOXB 202153Z AUTO 33008KT 10SM FEW039 27/21 A2990 RMK AO2 SLP124 T02720211
                 =
2017-09-20 16:53 METAR KOXB 202053Z AUTO 32008KT 10SM A2988 RMK AO2 SLP119 6//// 56001 PWINO $ =
2017-09-20 15:53 METAR KOXB 201953Z AUTO A2988 RMK AO2 SLP119 PWINO PNO $ =
2017-09-20 14:53 METAR KOXB 201853Z AUTO 35011KT 10SM SCT038 BKN047 29/21 A2988 RMK AO2 SLP118
                 T02890211 =
2017-09-20 13:53 METAR KOXB 201753Z AUTO 33011G16KT 10SM FEW032 SCT120 29/21 A2989 RMK AO2 SLP121
                 T02890211 10289 20211 58005 =
2017-09-20 12:53 METAR KOXB 201653Z AUTO 32011KT 10SM FEW028 28/21 A2989 RMK AO2 SLP123 T02780211
                 =
2017-09-20 11:53 METAR KOXB 201553Z AUTO 33011KT 10SM SCT026 27/21 A2990 RMK AO2 SLP124 T02670211
                 =
2017-09-20 11:22 METAR KOXB 201522Z AUTO 33008KT 10SM BKN025 26/21 A2990 RMK AO2 T02610206 =
2017-09-20 10:53 METAR KOXB 201453Z AUTO 34009KT 10SM SCT024 26/21 A2990 RMK AO2 SLP126 T02610206
                 51011 =
2017-09-20 09:53 METAR KOXB 201353Z AUTO 34013G19KT 10SM CLR 24/20 A2990 RMK AO2 SLP124 T02390200
                 =
2017-09-20 08:53 METAR KOXB 201253Z AUTO 33012KT 10SM BKN060 22/19 A2988 RMK AO2 SLP119 T02170189
                 =
2017-09-20 07:53 METAR KOXB 201153Z AUTO 33010KT 10SM BKN060 21/19 A2987 RMK AO2 SLP115 70063
                 T02110189 10211 20200 51019 =
2017-09-20 07:19 METAR KOXB 201119Z AUTO 33010KT 10SM FEW020 BKN065 21/19 A2986 RMK AO2 T02060189
                 =
2017-09-20 06:53 METAR KOXB 201053Z AUTO 34010KT 10SM BKN021 21/19 A2986 RMK AO2 SLP112 T02060189
                 =
2017-09-20 05:53 METAR KOXB 200953Z AUTO 32010G17KT 10SM BKN020 OVC044 21/19 A2984 RMK AO2 SLP105
                 T02060194 =
2017-09-20 05:45 METAR KOXB 200945Z AUTO 31009KT 10SM BKN021 OVC044 21/19 A2984 RMK AO2 T02060194
                 =
2017-09-20 05:22 METAR KOXB 200922Z AUTO 31010KT 10SM SCT019 BKN044 20/19 A2982 RMK AO2 T02000194
                 =
2017-09-20 04:53 METAR KOXB 200853Z AUTO 32010G15KT 10SM OVC020 21/19 A2981 RMK AO2 SLP096
                 T02060194 55000 =
2017-09-20 03:53 METAR KOXB 200753Z AUTO 32009KT 10SM BKN020 OVC045 21/19 A2981 RMK AO2 SLP093
                 T02060194 =
2017-09-20 02:53 METAR KOXB 200653Z AUTO 34009KT 10SM OVC019 21/19 A2981 RMK AO2 SLP093 T02110194
                 =
2017-09-20 01:53 METAR KOXB 200553Z AUTO 33010KT 10SM OVC017 21/20 A2981 RMK AO2 SLP096 60003
                 T02110200 55003 =
2017-09-20 00:53 METAR KOXB 200453Z AUTO 34010KT 10SM OVC018 21/20 A2981 RMK AO2 SLP095 T02110200
                 =
2017-09-19 23:53 METAR KOXB 200353Z AUTO 35011G18KT 10SM OVC016 21/20 A2982 RMK AO2 SLP098
                 T02110200 =
2017-09-19 22:53 METAR KOXB 200253Z AUTO 34012G20KT 10SM OVC016 21/20 A2982 RMK AO2 SLP098 60003
                 T02060200 58004 =
2017-09-19 21:53 METAR KOXB 200153Z AUTO 34010KT 10SM OVC020 A2982 RMK AO2 RAE08 SLP099 P0000 =

Support USWX by starting your Amazon purchase here.